createdAt,value
2022-10-13T00:01:14.654Z,38.20
2022-10-13T00:03:42.179Z,38.15
2022-10-13T00:06:10.941Z,39.33
2022-10-13T00:08:38.180Z,35.30
2022-10-13T00:11:20.433Z,34.70
2022-10-13T00:13:48.475Z,33.58
2022-10-13T00:16:17.964Z,35.80
2022-10-13T00:18:44.463Z,32.60
2022-10-13T00:21:14.341Z,34.92
2022-10-13T00:23:41.627Z,34.58
2022-10-13T00:26:10.174Z,32.03
2022-10-13T00:28:37.796Z,31.63
2022-10-13T00:31:13.880Z,30.73
2022-10-13T00:33:40.241Z,29.25
2022-10-13T00:36:06.728Z,32.38
2022-10-13T00:38:33.387Z,30.83
2022-10-13T00:40:59.930Z,29.83
2022-10-13T00:43:47.222Z,29.98
2022-10-13T00:46:14.441Z,29.85
2022-10-13T00:48:43.156Z,28.38
2022-10-13T00:51:12.020Z,29.17
2022-10-13T00:53:39.684Z,26.50
2022-10-13T00:56:09.745Z,27.42
2022-10-13T00:58:38.339Z,27.83
2022-10-13T01:01:06.713Z,25.23
2022-10-13T01:03:33.693Z,23.90
2022-10-13T01:06:02.456Z,25.77
2022-10-13T01:08:30.092Z,23.75
2022-10-13T01:11:05.268Z,24.20
2022-10-13T01:13:42.593Z,23.65
2022-10-13T01:16:44.052Z,22.88
2022-10-13T01:19:42.765Z,21.42
2022-10-13T01:22:28.372Z,23.02
2022-10-13T01:25:31.138Z,21.90
2022-10-13T01:28:41.010Z,22.83
2022-10-13T01:31:20.629Z,23.15
2022-10-13T01:34:03.648Z,28.65
2022-10-13T01:36:50.433Z,22.20
2022-10-13T01:39:56.276Z,22.08
2022-10-13T01:42:28.468Z,22.85
2022-10-13T01:45:01.638Z,20.80
2022-10-13T01:47:31.323Z,18.95
2022-10-13T01:49:58.548Z,19.42
2022-10-13T01:52:32.184Z,19.58
2022-10-13T01:55:09.375Z,18.80
2022-10-13T01:57:37.540Z,15.05
2022-10-13T02:00:09.080Z,15.23
2022-10-13T02:03:04.888Z,18.17
2022-10-13T02:05:49.024Z,14.75
2022-10-13T02:08:24.437Z,16.38
2022-10-13T02:10:55.466Z,18.05
2022-10-13T02:13:27.492Z,19.33
2022-10-13T02:15:56.781Z,21.45
2022-10-13T02:18:35.056Z,19.30
2022-10-13T02:21:03.281Z,19.85
2022-10-13T02:23:30.266Z,21.00
2022-10-13T02:25:59.376Z,19.75
2022-10-13T02:28:26.806Z,21.23
2022-10-13T02:30:53.258Z,22.20
2022-10-13T02:33:19.680Z,22.80
2022-10-13T02:35:46.034Z,23.63
2022-10-13T02:38:12.723Z,20.13
2022-10-13T02:40:39.184Z,22.10
2022-10-13T02:43:05.686Z,23.30
2022-10-13T02:45:32.301Z,25.70
2022-10-13T02:47:58.694Z,22.90
2022-10-13T02:50:25.111Z,25.02
2022-10-13T02:52:53.014Z,28.08
2022-10-13T02:55:19.419Z,26.25
2022-10-13T02:57:47.540Z,26.95
2022-10-13T03:00:14.768Z,25.23
2022-10-13T03:02:41.716Z,26.48
2022-10-13T03:05:09.026Z,24.63
2022-10-13T03:07:36.054Z,29.38
2022-10-13T03:10:02.661Z,28.52
2022-10-13T03:12:29.016Z,34.10
2022-10-13T03:14:55.411Z,36.80
2022-10-13T03:17:21.817Z,25.30
2022-10-13T03:19:48.315Z,26.67
2022-10-13T03:22:18.190Z,27.90
2022-10-13T03:24:45.095Z,31.80
2022-10-13T03:27:11.547Z,25.75
2022-10-13T03:29:37.959Z,28.02
2022-10-13T03:32:04.736Z,23.67
2022-10-13T03:34:31.199Z,24.45
2022-10-13T03:36:57.802Z,22.77
2022-10-13T03:39:24.250Z,21.42
2022-10-13T03:41:50.681Z,23.15
2022-10-13T03:44:17.047Z,22.52
2022-10-13T03:46:43.510Z,27.92
2022-10-13T03:49:11.739Z,23.45
2022-10-13T03:51:38.786Z,26.02
2022-10-13T03:54:05.406Z,24.73
2022-10-13T03:56:31.792Z,24.45
2022-10-13T03:59:00.081Z,25.38
2022-10-13T04:01:29.368Z,24.40
2022-10-13T04:03:56.661Z,23.75
2022-10-13T04:06:24.427Z,28.00
2022-10-13T04:08:51.619Z,22.75
2022-10-13T04:11:19.239Z,27.10
2022-10-13T04:13:50.532Z,23.48
2022-10-13T04:16:20.255Z,22.98
2022-10-13T04:18:57.822Z,24.27
2022-10-13T04:21:25.681Z,24.67
2022-10-13T04:23:57.158Z,27.35
2022-10-13T04:26:25.008Z,24.80
2022-10-13T04:28:53.018Z,24.83
2022-10-13T04:31:23.303Z,22.30
2022-10-13T04:33:50.842Z,23.23
2022-10-13T04:36:18.429Z,20.65
2022-10-13T04:38:46.597Z,21.80
2022-10-13T04:41:14.991Z,22.10
2022-10-13T04:43:41.954Z,20.48
2022-10-13T04:46:23.225Z,20.02
2022-10-13T04:48:51.559Z,21.90
2022-10-13T04:51:22.557Z,25.27
2022-10-13T04:53:49.393Z,22.75
2022-10-13T04:56:17.638Z,20.73
2022-10-13T04:58:46.018Z,26.00
2022-10-13T05:01:21.883Z,26.50
2022-10-13T05:03:57.438Z,27.75
2022-10-13T05:06:26.853Z,24.63
2022-10-13T05:08:55.980Z,23.77
2022-10-13T05:11:24.132Z,23.88
2022-10-13T05:13:50.778Z,26.25
2022-10-13T05:16:18.407Z,23.90
2022-10-13T05:18:45.432Z,23.33
2022-10-13T05:21:14.466Z,23.73
2022-10-13T05:23:41.824Z,22.80
2022-10-13T05:26:11.412Z,23.77
2022-10-13T05:28:38.250Z,23.77
2022-10-13T05:31:18.799Z,23.05
2022-10-13T05:33:45.990Z,24.03
2022-10-13T05:36:19.287Z,22.98
2022-10-13T05:38:49.351Z,23.90
2022-10-13T05:41:15.734Z,24.52
2022-10-13T05:43:42.889Z,25.13
2022-10-13T05:46:09.713Z,22.23
2022-10-13T05:48:37.274Z,24.70
2022-10-13T05:51:09.443Z,23.30
2022-10-13T05:53:40.226Z,23.83
2022-10-13T05:56:13.748Z,23.58
2022-10-13T05:58:45.791Z,22.90
2022-10-13T06:01:17.280Z,23.77
2022-10-13T06:03:46.424Z,22.98
2022-10-13T06:06:12.817Z,23.05
2022-10-13T06:08:39.440Z,21.48
2022-10-13T06:11:06.977Z,23.00
2022-10-13T06:13:33.751Z,23.23
2022-10-13T06:16:00.361Z,21.45
2022-10-13T06:18:26.762Z,20.27
2022-10-13T06:20:53.141Z,20.45
2022-10-13T06:23:19.612Z,20.77
2022-10-13T06:25:53.014Z,21.70
2022-10-13T06:28:20.780Z,21.23
2022-10-13T06:30:53.273Z,19.75
2022-10-13T06:33:22.263Z,19.77
2022-10-13T06:35:48.794Z,19.80
2022-10-13T06:38:15.160Z,20.85
2022-10-13T06:40:42.174Z,19.92
2022-10-13T06:43:08.595Z,19.88
2022-10-13T06:45:40.670Z,19.95
2022-10-13T06:48:07.090Z,18.20
2022-10-13T06:50:33.596Z,19.58
2022-10-13T06:53:00.094Z,19.33
2022-10-13T06:55:26.856Z,18.58
2022-10-13T06:57:53.254Z,17.63
2022-10-13T07:00:19.958Z,18.33
2022-10-13T07:02:50.446Z,18.25
2022-10-13T07:05:16.978Z,17.77
2022-10-13T07:07:43.556Z,18.75
2022-10-13T07:10:10.086Z,17.92
2022-10-13T07:12:36.452Z,18.58
2022-10-13T07:15:03.011Z,18.83
2022-10-13T07:17:29.550Z,18.50
2022-10-13T07:19:57.965Z,19.00
2022-10-13T07:22:24.806Z,18.60
2022-10-13T07:24:51.181Z,19.70
2022-10-13T07:27:19.438Z,18.05
2022-10-13T07:29:45.954Z,19.88
2022-10-13T07:32:12.335Z,20.30
2022-10-13T07:34:38.769Z,21.60
2022-10-13T07:37:05.125Z,25.30
2022-10-13T07:39:31.859Z,26.65
2022-10-13T07:41:58.245Z,20.42
2022-10-13T07:44:24.728Z,21.00
2022-10-13T07:46:51.098Z,19.95
2022-10-13T07:49:17.769Z,20.05
2022-10-13T07:51:44.421Z,19.80
2022-10-13T07:54:11.092Z,21.50
2022-10-13T07:56:38.279Z,18.65
2022-10-13T07:59:05.293Z,16.67
2022-10-13T08:01:32.172Z,19.48
2022-10-13T08:03:59.146Z,19.85
2022-10-13T08:06:25.801Z,19.13
2022-10-13T08:08:54.244Z,20.88
2022-10-13T08:11:20.747Z,16.95
2022-10-13T08:13:51.203Z,15.55
2022-10-13T08:16:20.500Z,20.15
2022-10-13T08:18:49.225Z,18.27
2022-10-13T08:24:15.546Z,16.60
2022-10-13T08:26:43.359Z,15.70
2022-10-13T08:29:21.486Z,15.10
2022-10-13T08:34:24.708Z,15.20
2022-10-13T08:36:54.203Z,14.77
2022-10-13T08:39:22.831Z,14.30
2022-10-13T08:41:49.603Z,14.70
2022-10-13T08:47:46.797Z,16.05
2022-10-13T08:50:17.636Z,13.77
2022-10-13T08:52:52.583Z,13.43
2022-10-13T08:55:38.275Z,15.02
2022-10-13T08:58:14.652Z,15.40
2022-10-13T09:00:41.652Z,14.75
2022-10-13T09:03:29.062Z,15.43
2022-10-13T09:06:02.855Z,15.50
2022-10-13T09:08:36.237Z,14.40
2022-10-13T09:11:02.822Z,15.48
2022-10-13T09:13:29.199Z,15.65
2022-10-13T09:15:57.974Z,13.77
2022-10-13T09:18:30.588Z,13.95
2022-10-13T09:21:24.145Z,18.58
2022-10-13T09:23:53.856Z,14.63
2022-10-13T09:26:23.728Z,13.45
2022-10-13T09:28:51.483Z,14.40
2022-10-13T09:31:18.072Z,14.02
2022-10-13T09:33:45.672Z,14.18
2022-10-13T09:36:16.193Z,14.77
2022-10-13T09:39:07.542Z,13.95
2022-10-13T09:41:36.066Z,15.15
2022-10-13T09:44:32.044Z,12.73
2022-10-13T09:47:01.973Z,13.52
2022-10-13T09:50:03.305Z,13.50
2022-10-13T09:52:34.665Z,13.07
2022-10-13T09:55:01.571Z,13.63
2022-10-13T09:57:34.253Z,11.25
2022-10-13T10:00:22.069Z,12.35
2022-10-13T10:03:18.842Z,12.80
2022-10-13T10:05:51.977Z,13.13
2022-10-13T10:08:33.809Z,14.07
2022-10-13T10:11:12.467Z,13.13
2022-10-13T10:13:38.968Z,13.68
2022-10-13T10:16:22.749Z,13.10
2022-10-13T10:18:59.131Z,12.60
2022-10-13T10:21:53.451Z,12.88
2022-10-13T10:24:23.010Z,13.10
2022-10-13T10:29:23.595Z,11.25
2022-10-13T10:32:02.206Z,11.48
2022-10-13T10:34:37.074Z,11.65
2022-10-13T10:37:29.198Z,10.60
2022-10-13T10:40:15.130Z,11.80
2022-10-13T10:43:04.425Z,10.95
2022-10-13T10:45:38.831Z,10.80
2022-10-13T10:48:28.261Z,10.32
2022-10-13T10:50:54.809Z,10.80
2022-10-13T10:53:39.754Z,11.40
2022-10-13T10:56:19.366Z,11.55
2022-10-13T10:59:16.566Z,10.63
2022-10-13T11:02:07.225Z,10.52
2022-10-13T11:04:48.809Z,10.38
2022-10-13T11:07:24.072Z,10.65
2022-10-13T11:09:54.023Z,10.05
2022-10-13T11:12:20.791Z,9.90
2022-10-13T11:15:11.377Z,10.27
2022-10-13T11:17:40.079Z,10.40
2022-10-13T11:20:21.618Z,10.23
2022-10-13T11:23:00.291Z,9.80
2022-10-13T11:25:45.640Z,9.90
2022-10-13T11:28:21.285Z,9.95
2022-10-13T11:30:50.365Z,9.95
2022-10-13T11:33:52.447Z,10.40
2022-10-13T11:36:37.823Z,9.68
2022-10-13T11:39:28.120Z,9.45
2022-10-13T11:42:25.247Z,10.97
2022-10-13T11:44:57.370Z,9.35
2022-10-13T11:47:59.322Z,8.90
2022-10-13T11:50:52.525Z,9.75
2022-10-13T11:53:32.294Z,9.45
2022-10-13T11:56:01.465Z,9.55
2022-10-13T11:58:33.236Z,10.30
2022-10-13T12:01:12.293Z,9.85
2022-10-13T12:03:41.501Z,9.38
2022-10-13T12:06:32.077Z,9.70
2022-10-13T12:09:01.081Z,9.85
2022-10-13T12:11:37.635Z,9.05
2022-10-13T12:14:07.606Z,9.57
2022-10-13T12:16:33.992Z,9.50
2022-10-13T12:19:21.912Z,10.43
2022-10-13T12:21:53.644Z,11.30
2022-10-13T12:24:23.626Z,11.32
2022-10-13T12:26:50.724Z,11.98
2022-10-13T12:29:18.318Z,11.13
2022-10-13T12:31:47.278Z,11.65
2022-10-13T12:34:22.970Z,11.10
2022-10-13T12:36:57.232Z,11.88
2022-10-13T12:39:25.225Z,9.95
2022-10-13T12:41:53.363Z,11.10
2022-10-13T12:44:25.842Z,11.65
2022-10-13T12:46:56.215Z,10.95
2022-10-13T12:49:28.196Z,10.00
2022-10-13T12:52:03.496Z,10.15
2022-10-13T12:54:36.157Z,13.50
2022-10-13T12:57:19.263Z,10.95
2022-10-13T12:59:46.036Z,10.20
2022-10-13T13:02:29.845Z,10.55
2022-10-13T13:04:56.265Z,10.43
2022-10-13T13:07:34.159Z,10.40
2022-10-13T13:10:19.953Z,10.00
2022-10-13T13:12:48.749Z,9.93
2022-10-13T13:15:24.143Z,10.75
2022-10-13T13:17:59.561Z,9.18
2022-10-13T13:20:29.089Z,9.48
2022-10-13T13:22:55.926Z,9.52
2022-10-13T13:25:22.764Z,8.73
2022-10-13T13:27:49.260Z,9.82
2022-10-13T13:30:19.581Z,10.25
2022-10-13T13:32:46.329Z,9.52
2022-10-13T13:35:13.099Z,9.65
2022-10-13T13:37:50.438Z,10.35
2022-10-13T13:40:23.313Z,11.38
2022-10-13T13:42:50.069Z,10.85
2022-10-13T13:45:19.322Z,12.45
2022-10-13T13:47:46.304Z,12.07
2022-10-13T13:50:20.217Z,12.50
2022-10-13T13:52:55.877Z,12.18
2022-10-13T13:55:23.248Z,12.23
2022-10-13T13:57:49.743Z,10.63
2022-10-13T14:00:17.348Z,12.82
2022-10-13T14:02:49.275Z,12.57
2022-10-13T14:05:16.115Z,11.50
2022-10-13T14:07:42.500Z,10.93
2022-10-13T14:10:10.140Z,10.65
2022-10-13T14:12:37.024Z,11.18
2022-10-13T14:15:03.863Z,9.57
2022-10-13T14:17:30.283Z,11.93
2022-10-13T14:19:56.902Z,10.00
2022-10-13T14:22:23.599Z,11.98
2022-10-13T14:24:50.400Z,13.20
2022-10-13T14:27:16.850Z,12.98
2022-10-13T14:29:43.279Z,14.93
2022-10-13T14:32:11.471Z,13.68
2022-10-13T14:34:37.886Z,12.63
2022-10-13T14:37:04.477Z,12.50
2022-10-13T14:39:30.866Z,11.93
2022-10-13T14:41:57.292Z,11.65
2022-10-13T14:44:23.740Z,11.65
2022-10-13T14:46:50.195Z,12.00
2022-10-13T14:49:16.556Z,11.65
2022-10-13T14:51:47.666Z,11.57
2022-10-13T14:54:15.790Z,11.60
2022-10-13T14:56:42.155Z,12.57
2022-10-13T14:59:10.910Z,11.25
2022-10-13T15:01:41.282Z,12.45
2022-10-13T15:04:08.418Z,10.73
2022-10-13T15:06:35.135Z,12.48
2022-10-13T15:09:01.749Z,11.40
2022-10-13T15:11:28.461Z,13.57
2022-10-13T15:13:56.162Z,11.68
2022-10-13T15:16:26.215Z,14.75
2022-10-13T15:18:52.725Z,11.77
2022-10-13T15:21:19.577Z,12.40
2022-10-13T15:23:46.591Z,11.88
2022-10-13T15:26:14.861Z,11.75
2022-10-13T15:28:47.313Z,11.57
2022-10-13T15:31:15.807Z,11.07
2022-10-13T15:33:43.909Z,11.30
2022-10-13T15:36:10.311Z,12.55
2022-10-13T15:38:39.204Z,11.38
2022-10-13T15:41:06.912Z,11.85
2022-10-13T15:43:34.266Z,12.32
2022-10-13T15:46:04.148Z,12.73
2022-10-13T15:48:32.263Z,12.88
2022-10-13T15:50:58.721Z,12.70
2022-10-13T15:53:25.932Z,12.43
2022-10-13T15:55:52.680Z,12.50
2022-10-13T15:58:19.310Z,12.07
2022-10-13T16:00:45.819Z,12.00
2022-10-13T16:03:17.269Z,13.45
2022-10-13T16:05:45.379Z,12.00
2022-10-13T16:08:12.601Z,13.13
2022-10-13T16:10:41.107Z,13.35
2022-10-13T16:13:07.821Z,13.65
2022-10-13T16:15:34.233Z,13.27
2022-10-13T16:18:00.646Z,12.63
2022-10-13T16:20:27.109Z,13.25
2022-10-13T16:22:53.942Z,12.38
2022-10-13T16:25:20.384Z,12.55
2022-10-13T16:27:46.773Z,13.63
2022-10-13T16:30:13.337Z,13.90
2022-10-13T16:32:40.385Z,13.63
2022-10-13T16:35:07.421Z,14.30
2022-10-13T16:37:33.883Z,13.05
2022-10-13T16:40:00.270Z,12.65
2022-10-13T16:42:26.686Z,12.63
2022-10-13T16:44:53.049Z,12.77
2022-10-13T16:47:19.420Z,12.75
2022-10-13T16:49:46.845Z,12.55
2022-10-13T16:52:14.568Z,13.73
2022-10-13T16:54:43.582Z,13.27
2022-10-13T16:57:09.937Z,12.80
2022-10-13T16:59:36.305Z,13.82
2022-10-13T17:02:03.016Z,12.57
2022-10-13T17:04:31.041Z,15.82
2022-10-13T17:06:57.524Z,15.27
2022-10-13T17:09:23.906Z,15.23
2022-10-13T17:11:50.273Z,15.95
2022-10-13T17:14:16.627Z,16.15
2022-10-13T17:16:44.067Z,14.50
2022-10-13T17:19:10.457Z,14.25
2022-10-13T17:21:36.924Z,14.38
2022-10-13T17:24:05.286Z,13.60
2022-10-13T17:26:32.951Z,14.43
2022-10-13T17:28:59.500Z,13.07
2022-10-13T17:31:25.892Z,15.38
2022-10-13T17:33:53.121Z,14.82
2022-10-13T17:36:25.917Z,13.57
2022-10-13T17:38:55.014Z,14.23
2022-10-13T17:41:22.485Z,14.52
2022-10-13T17:43:50.674Z,16.63
2022-10-13T17:49:07.573Z,16.52
2022-10-13T17:51:34.188Z,17.52
2022-10-13T17:54:01.005Z,16.15
2022-10-13T17:56:27.945Z,19.90
2022-10-13T17:58:54.836Z,20.30
2022-10-13T18:01:30.219Z,18.33
2022-10-13T18:04:02.860Z,18.35
2022-10-13T18:06:36.778Z,18.27
2022-10-13T18:09:09.798Z,16.52
2022-10-13T18:11:36.897Z,16.23
2022-10-13T18:14:03.908Z,15.80
2022-10-13T18:16:30.477Z,17.95
2022-10-13T18:18:56.974Z,15.55
2022-10-13T18:21:26.815Z,16.15
2022-10-13T18:23:55.626Z,18.45
2022-10-13T18:26:22.621Z,17.92
2022-10-13T18:28:50.181Z,17.40
2022-10-13T18:31:20.325Z,18.58
2022-10-13T18:33:50.037Z,17.35
2022-10-13T18:36:16.889Z,17.30
2022-10-13T18:38:43.748Z,17.85
2022-10-13T18:41:10.185Z,16.85
2022-10-13T18:43:36.571Z,17.48
2022-10-13T18:46:04.758Z,16.40
2022-10-13T18:48:32.671Z,15.68
2022-10-13T18:51:10.704Z,16.45
2022-10-13T18:53:39.003Z,16.38
2022-10-13T18:56:08.380Z,15.95
2022-10-13T18:58:35.431Z,21.23
2022-10-13T19:01:03.404Z,24.60
2022-10-13T19:03:32.048Z,20.40
2022-10-13T19:05:59.087Z,19.02
2022-10-13T19:08:26.447Z,18.42
2022-10-13T19:10:52.798Z,18.75
2022-10-13T19:13:19.171Z,23.13
2022-10-13T19:15:46.012Z,19.00
2022-10-13T19:18:12.921Z,18.55
2022-10-13T19:20:40.861Z,19.13
2022-10-13T19:23:07.342Z,17.75
2022-10-13T19:25:33.842Z,16.08
2022-10-13T19:28:00.259Z,16.67
2022-10-13T19:30:26.850Z,16.52
2022-10-13T19:32:53.861Z,16.35
2022-10-13T19:35:20.320Z,17.23
2022-10-13T19:37:46.709Z,16.67
2022-10-13T19:40:13.076Z,14.93
2022-10-13T19:42:39.457Z,16.92
2022-10-13T19:45:06.730Z,20.60
2022-10-13T19:47:33.240Z,21.35
2022-10-13T19:49:59.610Z,19.20
2022-10-13T19:52:26.164Z,19.98
2022-10-13T19:54:52.588Z,18.08
2022-10-13T19:57:19.494Z,18.83
2022-10-13T19:59:47.844Z,18.35
2022-10-13T20:02:14.583Z,18.70
2022-10-13T20:04:41.125Z,18.15
2022-10-13T20:07:07.531Z,17.98
2022-10-13T20:09:34.391Z,17.45
2022-10-13T20:12:00.837Z,16.40
2022-10-13T20:14:27.217Z,17.40
2022-10-13T20:16:56.348Z,16.90
2022-10-13T20:19:22.697Z,16.92
2022-10-13T20:21:51.580Z,16.73
2022-10-13T20:24:19.091Z,15.52
2022-10-13T20:26:45.543Z,16.17
2022-10-13T20:29:12.147Z,15.55
2022-10-13T20:31:38.595Z,14.95
2022-10-13T20:34:05.079Z,16.00
2022-10-13T20:36:37.505Z,15.50
2022-10-13T20:39:05.099Z,15.43
2022-10-13T20:41:33.111Z,15.77
2022-10-13T20:44:00.611Z,15.38
2022-10-13T20:46:29.573Z,15.45
2022-10-13T20:49:12.876Z,15.10
2022-10-13T20:51:40.560Z,15.82
2022-10-13T20:54:07.608Z,14.50
2022-10-13T20:56:34.191Z,15.82
2022-10-13T20:59:10.056Z,15.52
2022-10-13T21:01:37.166Z,15.82
2022-10-13T21:04:04.480Z,14.93
2022-10-13T21:06:31.077Z,16.83
2022-10-13T21:08:59.963Z,16.52
2022-10-13T21:11:26.340Z,17.40
2022-10-13T21:13:53.071Z,16.20
2022-10-13T21:16:22.480Z,17.67
2022-10-13T21:18:51.005Z,17.20
2022-10-13T21:21:22.554Z,16.55
2022-10-13T21:23:58.124Z,15.93
2022-10-13T21:26:26.079Z,17.73
2022-10-13T21:28:52.968Z,16.55
2022-10-13T21:31:21.568Z,15.77
2022-10-13T21:33:48.872Z,15.50
2022-10-13T21:36:18.886Z,17.15
2022-10-13T21:38:46.284Z,15.98
2022-10-13T21:41:14.144Z,15.80
2022-10-13T21:43:40.720Z,15.23
2022-10-13T21:46:20.512Z,17.05
2022-10-13T21:48:54.637Z,15.38
2022-10-13T21:51:31.095Z,16.23
2022-10-13T21:54:09.414Z,15.10
2022-10-13T21:56:36.960Z,15.57
2022-10-13T21:59:03.701Z,14.98
2022-10-13T22:01:30.514Z,15.57
2022-10-13T22:03:59.724Z,15.40
2022-10-13T22:06:26.910Z,16.55
2022-10-13T22:08:55.200Z,14.75
2022-10-13T22:11:24.465Z,14.88
2022-10-13T22:13:51.021Z,14.63
2022-10-13T22:16:26.947Z,14.07
2022-10-13T22:18:55.626Z,12.27
2022-10-13T22:21:29.953Z,13.52
2022-10-13T22:24:02.096Z,14.20
2022-10-13T22:26:30.443Z,11.88
2022-10-13T22:28:57.836Z,11.80
2022-10-13T22:31:24.265Z,11.75
2022-10-13T22:33:53.538Z,11.18
2022-10-13T22:36:22.417Z,11.75
2022-10-13T22:38:50.241Z,11.30
2022-10-13T22:41:18.823Z,10.95
2022-10-13T22:43:49.871Z,11.32
2022-10-13T22:46:18.105Z,10.32
2022-10-13T22:48:44.958Z,9.95
2022-10-13T22:51:15.933Z,9.38
2022-10-13T22:53:42.391Z,9.57
2022-10-13T22:56:11.893Z,8.77
2022-10-13T22:58:38.902Z,8.57
2022-10-13T23:01:12.950Z,8.35
2022-10-13T23:03:39.810Z,9.30
2022-10-13T23:06:08.261Z,8.88
2022-10-13T23:08:35.197Z,9.07
2022-10-13T23:11:01.588Z,9.73
2022-10-13T23:13:28.004Z,8.52
2022-10-13T23:16:08.917Z,9.05
2022-10-13T23:18:37.545Z,9.63
2022-10-13T23:21:08.367Z,8.40
2022-10-13T23:23:35.091Z,8.73
2022-10-13T23:26:10.869Z,9.02
2022-10-13T23:28:37.808Z,8.63
2022-10-13T23:31:08.102Z,7.63
2022-10-13T23:33:34.736Z,8.52
2022-10-13T23:36:02.477Z,8.32
2022-10-13T23:38:30.691Z,8.65
2022-10-13T23:41:08.917Z,8.80
2022-10-13T23:43:36.049Z,8.32
2022-10-13T23:46:03.440Z,8.65
2022-10-13T23:48:29.808Z,8.77
2022-10-13T23:50:56.522Z,8.18
2022-10-13T23:53:23.129Z,7.55
2022-10-13T23:55:49.557Z,7.70
2022-10-13T23:58:15.949Z,9.35
